sensor_id;sensor_type;location;lat;lon;timestamp;P1;durP1;ratioP1;P2;durP2;ratioP2
73678;SDS011;61978;52.742;16.962;2022-07-29T00:00:45;12.60;;;2.27;;
73678;SDS011;61978;52.742;16.962;2022-07-29T00:03:14;5.12;;;2.00;;
73678;SDS011;61978;52.742;16.962;2022-07-29T00:05:42;7.37;;;2.30;;
73678;SDS011;61978;52.742;16.962;2022-07-29T00:08:10;10.28;;;2.52;;
73678;SDS011;61978;52.742;16.962;2022-07-29T03:06:43;7.17;;;3.37;;
73678;SDS011;61978;52.742;16.962;2022-07-29T03:09:11;6.75;;;3.45;;
73678;SDS011;61978;52.742;16.962;2022-07-29T03:11:40;7.67;;;3.10;;
73678;SDS011;61978;52.742;16.962;2022-07-29T03:16:42;6.47;;;2.98;;
73678;SDS011;61978;52.742;16.962;2022-07-29T03:19:11;12.13;;;2.80;;
73678;SDS011;61978;52.742;16.962;2022-07-29T03:21:42;6.97;;;3.00;;
73678;SDS011;61978;52.742;16.962;2022-07-29T03:24:12;5.40;;;2.00;;
73678;SDS011;61978;52.742;16.962;2022-07-29T03:26:59;7.42;;;2.47;;
73678;SDS011;61978;52.742;16.962;2022-07-29T03:29:28;7.53;;;2.60;;
73678;SDS011;61978;52.742;16.962;2022-07-29T03:31:56;7.17;;;3.08;;
73678;SDS011;61978;52.742;16.962;2022-07-29T03:34:28;11.00;;;3.10;;
73678;SDS011;61978;52.742;16.962;2022-07-29T03:36:55;8.48;;;2.87;;
73678;SDS011;61978;52.742;16.962;2022-07-29T03:39:27;5.33;;;2.62;;
73678;SDS011;61978;52.742;16.962;2022-07-29T03:42:02;5.72;;;3.20;;
73678;SDS011;61978;52.742;16.962;2022-07-29T03:44:39;8.40;;;2.25;;
73678;SDS011;61978;52.742;16.962;2022-07-29T03:47:07;8.53;;;2.47;;
73678;SDS011;61978;52.742;16.962;2022-07-29T03:49:36;4.53;;;3.12;;
73678;SDS011;61978;52.742;16.962;2022-07-29T03:52:06;16.15;;;2.92;;
73678;SDS011;61978;52.742;16.962;2022-07-29T03:54:34;11.57;;;2.45;;
73678;SDS011;61978;52.742;16.962;2022-07-29T03:57:03;6.22;;;3.02;;
73678;SDS011;61978;52.742;16.962;2022-07-29T03:59:35;7.17;;;2.70;;
73678;SDS011;61978;52.742;16.962;2022-07-29T04:02:04;4.30;;;2.55;;
73678;SDS011;61978;52.742;16.962;2022-07-29T04:04:34;8.33;;;2.37;;
73678;SDS011;61978;52.742;16.962;2022-07-29T04:07:03;6.22;;;3.30;;
73678;SDS011;61978;52.742;16.962;2022-07-29T04:09:31;6.60;;;3.27;;
73678;SDS011;61978;52.742;16.962;2022-07-29T04:11:58;4.78;;;3.12;;
73678;SDS011;61978;52.742;16.962;2022-07-29T04:14:27;10.80;;;4.03;;
73678;SDS011;61978;52.742;16.962;2022-07-29T04:16:54;12.30;;;3.95;;
73678;SDS011;61978;52.742;16.962;2022-07-29T04:19:20;10.88;;;3.80;;
73678;SDS011;61978;52.742;16.962;2022-07-29T04:21:48;4.85;;;3.20;;
73678;SDS011;61978;52.742;16.962;2022-07-29T04:24:20;9.98;;;3.58;;
73678;SDS011;61978;52.742;16.962;2022-07-29T04:26:46;10.05;;;3.55;;
73678;SDS011;61978;52.742;16.962;2022-07-29T04:29:14;7.85;;;2.90;;
73678;SDS011;61978;52.742;16.962;2022-07-29T04:31:41;8.63;;;3.90;;
73678;SDS011;61978;52.742;16.962;2022-07-29T04:34:11;8.95;;;3.30;;
73678;SDS011;61978;52.742;16.962;2022-07-29T04:36:41;10.25;;;2.70;;
73678;SDS011;61978;52.742;16.962;2022-07-29T04:39:10;4.87;;;3.20;;
73678;SDS011;61978;52.742;16.962;2022-07-29T04:41:40;5.87;;;2.72;;
73678;SDS011;61978;52.742;16.962;2022-07-29T04:44:09;7.08;;;2.35;;
73678;SDS011;61978;52.742;16.962;2022-07-29T04:46:38;10.40;;;3.37;;
73678;SDS011;61978;52.742;16.962;2022-07-29T04:49:05;5.17;;;2.77;;
73678;SDS011;61978;52.742;16.962;2022-07-29T04:51:33;11.48;;;3.12;;
73678;SDS011;61978;52.742;16.962;2022-07-29T04:54:05;8.78;;;3.08;;
73678;SDS011;61978;52.742;16.962;2022-07-29T04:56:31;7.45;;;2.33;;
73678;SDS011;61978;52.742;16.962;2022-07-29T04:59:00;7.90;;;2.12;;
73678;SDS011;61978;52.742;16.962;2022-07-29T05:01:28;6.22;;;2.22;;
73678;SDS011;61978;52.742;16.962;2022-07-29T05:03:55;9.15;;;2.45;;
73678;SDS011;61978;52.742;16.962;2022-07-29T05:06:21;4.60;;;1.82;;
73678;SDS011;61978;52.742;16.962;2022-07-29T05:08:48;10.32;;;2.35;;
73678;SDS011;61978;52.742;16.962;2022-07-29T05:11:14;5.92;;;2.35;;
73678;SDS011;61978;52.742;16.962;2022-07-29T05:13:41;6.53;;;2.40;;
73678;SDS011;61978;52.742;16.962;2022-07-29T05:16:09;5.03;;;2.40;;
73678;SDS011;61978;52.742;16.962;2022-07-29T05:18:36;4.83;;;2.27;;
73678;SDS011;61978;52.742;16.962;2022-07-29T05:21:03;6.83;;;2.55;;
73678;SDS011;61978;52.742;16.962;2022-07-29T05:23:31;6.50;;;2.08;;
73678;SDS011;61978;52.742;16.962;2022-07-29T05:25:57;7.67;;;1.98;;
73678;SDS011;61978;52.742;16.962;2022-07-29T05:28:24;6.75;;;2.27;;
73678;SDS011;61978;52.742;16.962;2022-07-29T05:30:54;12.35;;;2.20;;
73678;SDS011;61978;52.742;16.962;2022-07-29T05:33:21;10.60;;;2.37;;
73678;SDS011;61978;52.742;16.962;2022-07-29T05:35:51;10.55;;;2.25;;
73678;SDS011;61978;52.742;16.962;2022-07-29T05:38:17;10.10;;;2.42;;
73678;SDS011;61978;52.742;16.962;2022-07-29T05:40:44;6.10;;;1.92;;
73678;SDS011;61978;52.742;16.962;2022-07-29T05:43:11;10.10;;;2.20;;
73678;SDS011;61978;52.742;16.962;2022-07-29T05:45:40;5.95;;;1.40;;
73678;SDS011;61978;52.742;16.962;2022-07-29T05:48:07;9.33;;;2.37;;
73678;SDS011;61978;52.742;16.962;2022-07-29T05:50:35;10.10;;;2.35;;
73678;SDS011;61978;52.742;16.962;2022-07-29T05:53:03;6.83;;;2.45;;
73678;SDS011;61978;52.742;16.962;2022-07-29T05:55:34;4.58;;;2.25;;
73678;SDS011;61978;52.742;16.962;2022-07-29T05:58:01;6.75;;;1.90;;
73678;SDS011;61978;52.742;16.962;2022-07-29T06:00:28;4.65;;;1.85;;
73678;SDS011;61978;52.742;16.962;2022-07-29T06:02:57;5.42;;;2.10;;
73678;SDS011;61978;52.742;16.962;2022-07-29T06:05:24;5.65;;;2.10;;
73678;SDS011;61978;52.742;16.962;2022-07-29T06:07:52;4.78;;;2.20;;
73678;SDS011;61978;52.742;16.962;2022-07-29T06:10:18;9.05;;;2.35;;
73678;SDS011;61978;52.742;16.962;2022-07-29T06:12:45;2.12;;;1.72;;
73678;SDS011;61978;52.742;16.962;2022-07-29T06:15:12;4.50;;;2.30;;
73678;SDS011;61978;52.742;16.962;2022-07-29T06:17:44;7.30;;;2.17;;
73678;SDS011;61978;52.742;16.962;2022-07-29T06:20:10;3.55;;;2.02;;
73678;SDS011;61978;52.742;16.962;2022-07-29T06:22:40;5.75;;;2.02;;
73678;SDS011;61978;52.742;16.962;2022-07-29T06:25:08;6.78;;;1.52;;
73678;SDS011;61978;52.742;16.962;2022-07-29T06:27:36;4.47;;;1.80;;
73678;SDS011;61978;52.742;16.962;2022-07-29T06:30:05;3.17;;;1.62;;
73678;SDS011;61978;52.742;16.962;2022-07-29T06:32:36;4.37;;;1.92;;
73678;SDS011;61978;52.742;16.962;2022-07-29T06:35:09;9.68;;;2.35;;
73678;SDS011;61978;52.742;16.962;2022-07-29T06:37:44;4.47;;;1.32;;
73678;SDS011;61978;52.742;16.962;2022-07-29T06:40:15;11.65;;;1.90;;
73678;SDS011;61978;52.742;16.962;2022-07-29T06:43:02;9.35;;;2.17;;
73678;SDS011;61978;52.742;16.962;2022-07-29T06:45:35;4.08;;;1.45;;
73678;SDS011;61978;52.742;16.962;2022-07-29T06:48:06;6.25;;;2.17;;
73678;SDS011;61978;52.742;16.962;2022-07-29T06:50:34;5.70;;;1.85;;
73678;SDS011;61978;52.742;16.962;2022-07-29T06:53:01;4.33;;;1.70;;
73678;SDS011;61978;52.742;16.962;2022-07-29T06:55:33;3.65;;;1.52;;
73678;SDS011;61978;52.742;16.962;2022-07-29T06:58:01;8.53;;;1.50;;
73678;SDS011;61978;52.742;16.962;2022-07-29T07:00:30;3.27;;;1.52;;
73678;SDS011;61978;52.742;16.962;2022-07-29T07:02:57;7.85;;;1.95;;
73678;SDS011;61978;52.742;16.962;2022-07-29T07:05:28;4.62;;;1.57;;
73678;SDS011;61978;52.742;16.962;2022-07-29T07:07:54;2.25;;;1.25;;
73678;SDS011;61978;52.742;16.962;2022-07-29T07:10:21;4.90;;;1.77;;
73678;SDS011;61978;52.742;16.962;2022-07-29T07:12:48;4.40;;;1.72;;
73678;SDS011;61978;52.742;16.962;2022-07-29T07:15:15;7.08;;;2.00;;
73678;SDS011;61978;52.742;16.962;2022-07-29T07:17:41;6.50;;;1.50;;
73678;SDS011;61978;52.742;16.962;2022-07-29T07:20:10;4.72;;;1.67;;
73678;SDS011;61978;52.742;16.962;2022-07-29T07:22:40;8.45;;;2.58;;
73678;SDS011;61978;52.742;16.962;2022-07-29T07:25:10;5.62;;;2.37;;
73678;SDS011;61978;52.742;16.962;2022-07-29T07:27:37;6.33;;;2.33;;
73678;SDS011;61978;52.742;16.962;2022-07-29T07:30:06;5.00;;;1.80;;
73678;SDS011;61978;52.742;16.962;2022-07-29T07:32:35;16.97;;;3.08;;
73678;SDS011;61978;52.742;16.962;2022-07-29T07:35:07;4.62;;;1.98;;
73678;SDS011;61978;52.742;16.962;2022-07-29T07:37:37;10.53;;;2.10;;
73678;SDS011;61978;52.742;16.962;2022-07-29T07:40:07;4.37;;;1.42;;
73678;SDS011;61978;52.742;16.962;2022-07-29T07:42:41;4.95;;;1.45;;
73678;SDS011;61978;52.742;16.962;2022-07-29T07:45:11;5.30;;;1.37;;
73678;SDS011;61978;52.742;16.962;2022-07-29T07:47:40;7.20;;;1.50;;
73678;SDS011;61978;52.742;16.962;2022-07-29T07:50:13;2.98;;;1.22;;
73678;SDS011;61978;52.742;16.962;2022-07-29T07:52:50;14.10;;;2.72;;
73678;SDS011;61978;52.742;16.962;2022-07-29T07:55:22;3.60;;;1.40;;
73678;SDS011;61978;52.742;16.962;2022-07-29T07:57:51;7.67;;;1.50;;
73678;SDS011;61978;52.742;16.962;2022-07-29T08:00:17;3.75;;;1.50;;
73678;SDS011;61978;52.742;16.962;2022-07-29T08:02:49;3.22;;;0.88;;
73678;SDS011;61978;52.742;16.962;2022-07-29T08:05:22;3.75;;;1.35;;
73678;SDS011;61978;52.742;16.962;2022-07-29T08:07:52;4.62;;;1.22;;
73678;SDS011;61978;52.742;16.962;2022-07-29T08:10:20;4.95;;;0.85;;
73678;SDS011;61978;52.742;16.962;2022-07-29T08:13:07;2.27;;;1.25;;
73678;SDS011;61978;52.742;16.962;2022-07-29T08:18:11;2.83;;;1.45;;
73678;SDS011;61978;52.742;16.962;2022-07-29T08:20:41;7.15;;;1.25;;
73678;SDS011;61978;52.742;16.962;2022-07-29T08:23:07;6.03;;;1.17;;
73678;SDS011;61978;52.742;16.962;2022-07-29T08:25:35;3.75;;;1.00;;
73678;SDS011;61978;52.742;16.962;2022-07-29T08:28:07;3.37;;;1.10;;
73678;SDS011;61978;52.742;16.962;2022-07-29T08:30:42;8.25;;;1.40;;
73678;SDS011;61978;52.742;16.962;2022-07-29T08:33:13;9.20;;;1.22;;
73678;SDS011;61978;52.742;16.962;2022-07-29T08:35:42;9.28;;;1.22;;
73678;SDS011;61978;52.742;16.962;2022-07-29T08:38:12;7.72;;;1.17;;
73678;SDS011;61978;52.742;16.962;2022-07-29T08:40:41;2.77;;;1.10;;
73678;SDS011;61978;52.742;16.962;2022-07-29T08:43:10;4.72;;;1.40;;
73678;SDS011;61978;52.742;16.962;2022-07-29T08:45:49;5.30;;;1.02;;
73678;SDS011;61978;52.742;16.962;2022-07-29T08:48:19;1.77;;;0.90;;
73678;SDS011;61978;52.742;16.962;2022-07-29T08:50:55;4.42;;;1.00;;
73678;SDS011;61978;52.742;16.962;2022-07-29T08:53:26;2.17;;;0.90;;
73678;SDS011;61978;52.742;16.962;2022-07-29T08:55:54;3.77;;;1.05;;
73678;SDS011;61978;52.742;16.962;2022-07-29T08:58:23;4.45;;;1.20;;
73678;SDS011;61978;52.742;16.962;2022-07-29T09:00:54;3.65;;;0.95;;
73678;SDS011;61978;52.742;16.962;2022-07-29T09:03:24;5.58;;;0.72;;
73678;SDS011;61978;52.742;16.962;2022-07-29T09:05:54;1.92;;;0.85;;
73678;SDS011;61978;52.742;16.962;2022-07-29T09:08:22;5.12;;;0.85;;
73678;SDS011;61978;52.742;16.962;2022-07-29T09:10:52;2.58;;;0.80;;
73678;SDS011;61978;52.742;16.962;2022-07-29T09:13:26;9.78;;;1.98;;
73678;SDS011;61978;52.742;16.962;2022-07-29T09:15:56;7.78;;;1.30;;
73678;SDS011;61978;52.742;16.962;2022-07-29T09:18:33;4.25;;;0.98;;
73678;SDS011;61978;52.742;16.962;2022-07-29T09:21:05;6.62;;;1.45;;
73678;SDS011;61978;52.742;16.962;2022-07-29T09:24:00;1.55;;;0.72;;
73678;SDS011;61978;52.742;16.962;2022-07-29T09:26:36;5.40;;;0.88;;
73678;SDS011;61978;52.742;16.962;2022-07-29T09:29:08;1.80;;;0.90;;
73678;SDS011;61978;52.742;16.962;2022-07-29T09:31:44;5.22;;;0.88;;
73678;SDS011;61978;52.742;16.962;2022-07-29T09:34:16;5.20;;;0.98;;
73678;SDS011;61978;52.742;16.962;2022-07-29T09:36:46;2.58;;;0.90;;
73678;SDS011;61978;52.742;16.962;2022-07-29T09:39:31;9.93;;;1.02;;
73678;SDS011;61978;52.742;16.962;2022-07-29T09:42:03;3.22;;;0.80;;
73678;SDS011;61978;52.742;16.962;2022-07-29T09:47:18;3.12;;;0.60;;
73678;SDS011;61978;52.742;16.962;2022-07-29T09:49:54;7.65;;;1.30;;
73678;SDS011;61978;52.742;16.962;2022-07-29T09:52:29;2.60;;;0.72;;
73678;SDS011;61978;52.742;16.962;2022-07-29T09:55:08;1.07;;;0.70;;
73678;SDS011;61978;52.742;16.962;2022-07-29T09:57:37;4.40;;;1.05;;
73678;SDS011;61978;52.742;16.962;2022-07-29T10:00:05;2.02;;;1.02;;
73678;SDS011;61978;52.742;16.962;2022-07-29T10:02:38;2.90;;;0.90;;
73678;SDS011;61978;52.742;16.962;2022-07-29T10:05:24;1.80;;;1.02;;
73678;SDS011;61978;52.742;16.962;2022-07-29T10:07:55;4.30;;;0.85;;
73678;SDS011;61978;52.742;16.962;2022-07-29T10:10:25;8.98;;;1.37;;
73678;SDS011;61978;52.742;16.962;2022-07-29T10:13:01;3.37;;;0.55;;
73678;SDS011;61978;52.742;16.962;2022-07-29T10:15:31;1.05;;;0.72;;
73678;SDS011;61978;52.742;16.962;2022-07-29T10:18:01;6.87;;;1.02;;
73678;SDS011;61978;52.742;16.962;2022-07-29T10:20:28;2.27;;;0.90;;
73678;SDS011;61978;52.742;16.962;2022-07-29T10:22:54;5.45;;;1.20;;
73678;SDS011;61978;52.742;16.962;2022-07-29T10:25:24;5.62;;;0.88;;
73678;SDS011;61978;52.742;16.962;2022-07-29T10:27:58;3.35;;;0.53;;
73678;SDS011;61978;52.742;16.962;2022-07-29T10:30:26;8.35;;;0.85;;
73678;SDS011;61978;52.742;16.962;2022-07-29T10:44:18;2.70;;;0.85;;
73678;SDS011;61978;52.742;16.962;2022-07-29T10:46:51;3.67;;;0.88;;
73678;SDS011;61978;52.742;16.962;2022-07-29T10:49:21;3.20;;;0.78;;
73678;SDS011;61978;52.742;16.962;2022-07-29T10:57:12;6.35;;;1.17;;
73678;SDS011;61978;52.742;16.962;2022-07-29T10:59:40;2.37;;;0.82;;
73678;SDS011;61978;52.742;16.962;2022-07-29T11:05:09;2.47;;;1.07;;
73678;SDS011;61978;52.742;16.962;2022-07-29T11:08:16;2.58;;;0.80;;
73678;SDS011;61978;52.742;16.962;2022-07-29T11:10:27;5.15;;;0.98;;
73678;SDS011;61978;52.742;16.962;2022-07-29T11:12:55;2.47;;;0.82;;
73678;SDS011;61978;52.742;16.962;2022-07-29T11:15:27;3.37;;;0.98;;
73678;SDS011;61978;52.742;16.962;2022-07-29T11:20:35;3.75;;;1.20;;
73678;SDS011;61978;52.742;16.962;2022-07-29T11:28:54;2.58;;;0.93;;
73678;SDS011;61978;52.742;16.962;2022-07-29T11:31:39;2.37;;;0.68;;
73678;SDS011;61978;52.742;16.962;2022-07-29T11:34:19;8.00;;;1.15;;
73678;SDS011;61978;52.742;16.962;2022-07-29T11:39:41;4.72;;;1.90;;
73678;SDS011;61978;52.742;16.962;2022-07-29T11:47:28;7.17;;;1.17;;
73678;SDS011;61978;52.742;16.962;2022-07-29T11:49:56;4.97;;;0.85;;
73678;SDS011;61978;52.742;16.962;2022-07-29T11:52:33;7.08;;;1.02;;
73678;SDS011;61978;52.742;16.962;2022-07-29T11:55:06;5.87;;;1.05;;
73678;SDS011;61978;52.742;16.962;2022-07-29T11:57:35;4.50;;;0.90;;
73678;SDS011;61978;52.742;16.962;2022-07-29T12:00:06;5.22;;;0.65;;
73678;SDS011;61978;52.742;16.962;2022-07-29T12:02:40;2.02;;;0.98;;
73678;SDS011;61978;52.742;16.962;2022-07-29T12:05:10;4.58;;;1.00;;
73678;SDS011;61978;52.742;16.962;2022-07-29T12:07:40;4.17;;;1.07;;
73678;SDS011;61978;52.742;16.962;2022-07-29T12:10:10;3.12;;;1.22;;
73678;SDS011;61978;52.742;16.962;2022-07-29T12:12:38;4.22;;;0.93;;
73678;SDS011;61978;52.742;16.962;2022-07-29T12:15:16;27.30;;;10.18;;
73678;SDS011;61978;52.742;16.962;2022-07-29T12:17:48;5.97;;;2.12;;
73678;SDS011;61978;52.742;16.962;2022-07-29T12:20:28;3.77;;;1.20;;
73678;SDS011;61978;52.742;16.962;2022-07-29T12:23:04;9.08;;;2.25;;
73678;SDS011;61978;52.742;16.962;2022-07-29T12:25:33;2.45;;;1.20;;
73678;SDS011;61978;52.742;16.962;2022-07-29T12:28:05;5.80;;;1.42;;
73678;SDS011;61978;52.742;16.962;2022-07-29T12:30:43;8.28;;;3.35;;
73678;SDS011;61978;52.742;16.962;2022-07-29T12:35:50;5.87;;;2.15;;
73678;SDS011;61978;52.742;16.962;2022-07-29T12:38:21;4.25;;;0.90;;
73678;SDS011;61978;52.742;16.962;2022-07-29T12:40:52;5.05;;;1.37;;
73678;SDS011;61978;52.742;16.962;2022-07-29T12:43:23;2.17;;;0.68;;
73678;SDS011;61978;52.742;16.962;2022-07-29T12:46:00;3.62;;;1.22;;
73678;SDS011;61978;52.742;16.962;2022-07-29T12:48:35;5.40;;;1.20;;
73678;SDS011;61978;52.742;16.962;2022-07-29T12:51:07;9.08;;;1.30;;
73678;SDS011;61978;52.742;16.962;2022-07-29T12:56:09;10.13;;;3.45;;
73678;SDS011;61978;52.742;16.962;2022-07-29T12:58:40;5.83;;;1.35;;
73678;SDS011;61978;52.742;16.962;2022-07-29T13:01:11;3.55;;;2.00;;
73678;SDS011;61978;52.742;16.962;2022-07-29T13:03:44;2.65;;;1.40;;
73678;SDS011;61978;52.742;16.962;2022-07-29T13:06:37;6.03;;;2.05;;
73678;SDS011;61978;52.742;16.962;2022-07-29T13:09:12;8.55;;;1.95;;
73678;SDS011;61978;52.742;16.962;2022-07-29T13:14:12;8.75;;;2.83;;
73678;SDS011;61978;52.742;16.962;2022-07-29T13:19:40;10.88;;;4.45;;
73678;SDS011;61978;52.742;16.962;2022-07-29T13:22:10;6.75;;;1.90;;
73678;SDS011;61978;52.742;16.962;2022-07-29T13:24:52;5.95;;;1.90;;
73678;SDS011;61978;52.742;16.962;2022-07-29T13:27:26;5.60;;;1.20;;
73678;SDS011;61978;52.742;16.962;2022-07-29T13:29:56;4.55;;;1.60;;
73678;SDS011;61978;52.742;16.962;2022-07-29T13:32:29;15.53;;;2.45;;
73678;SDS011;61978;52.742;16.962;2022-07-29T13:34:58;7.72;;;2.65;;
73678;SDS011;61978;52.742;16.962;2022-07-29T13:37:31;2.92;;;1.50;;
73678;SDS011;61978;52.742;16.962;2022-07-29T13:40:04;4.45;;;2.08;;
73678;SDS011;61978;52.742;16.962;2022-07-29T13:42:37;4.78;;;1.52;;
73678;SDS011;61978;52.742;16.962;2022-07-29T13:45:11;11.03;;;1.42;;
73678;SDS011;61978;52.742;16.962;2022-07-29T13:47:41;8.20;;;3.12;;
73678;SDS011;61978;52.742;16.962;2022-07-29T13:50:09;1.87;;;0.93;;
73678;SDS011;61978;52.742;16.962;2022-07-29T13:52:37;7.40;;;2.80;;
73678;SDS011;61978;52.742;16.962;2022-07-29T13:55:06;5.87;;;1.10;;
73678;SDS011;61978;52.742;16.962;2022-07-29T13:57:36;3.40;;;1.12;;
73678;SDS011;61978;52.742;16.962;2022-07-29T14:00:05;5.37;;;0.95;;
73678;SDS011;61978;52.742;16.962;2022-07-29T14:02:34;11.53;;;1.00;;
73678;SDS011;61978;52.742;16.962;2022-07-29T14:05:07;6.28;;;2.00;;
73678;SDS011;61978;52.742;16.962;2022-07-29T14:07:35;2.95;;;1.07;;
73678;SDS011;61978;52.742;16.962;2022-07-29T14:10:07;9.13;;;1.40;;
73678;SDS011;61978;52.742;16.962;2022-07-29T14:12:38;3.70;;;1.20;;
73678;SDS011;61978;52.742;16.962;2022-07-29T14:15:08;8.35;;;1.65;;
73678;SDS011;61978;52.742;16.962;2022-07-29T14:17:39;2.87;;;1.02;;
73678;SDS011;61978;52.742;16.962;2022-07-29T14:20:10;4.47;;;1.05;;
73678;SDS011;61978;52.742;16.962;2022-07-29T14:22:39;4.40;;;1.20;;
73678;SDS011;61978;52.742;16.962;2022-07-29T14:25:10;4.42;;;1.50;;
73678;SDS011;61978;52.742;16.962;2022-07-29T14:27:46;8.40;;;2.92;;
73678;SDS011;61978;52.742;16.962;2022-07-29T14:30:12;11.63;;;2.30;;
73678;SDS011;61978;52.742;16.962;2022-07-29T14:32:43;2.92;;;1.47;;
73678;SDS011;61978;52.742;16.962;2022-07-29T14:35:09;4.72;;;1.67;;
73678;SDS011;61978;52.742;16.962;2022-07-29T14:37:40;1.35;;;0.90;;
73678;SDS011;61978;52.742;16.962;2022-07-29T14:40:09;20.43;;;7.10;;
73678;SDS011;61978;52.742;16.962;2022-07-29T14:42:41;5.92;;;1.92;;
73678;SDS011;61978;52.742;16.962;2022-07-29T14:45:12;8.05;;;1.70;;
73678;SDS011;61978;52.742;16.962;2022-07-29T14:47:43;6.58;;;1.40;;
73678;SDS011;61978;52.742;16.962;2022-07-29T14:50:11;4.33;;;0.90;;
73678;SDS011;61978;52.742;16.962;2022-07-29T14:52:38;2.87;;;1.45;;
73678;SDS011;61978;52.742;16.962;2022-07-29T14:55:08;4.55;;;1.15;;
73678;SDS011;61978;52.742;16.962;2022-07-29T14:57:35;1.45;;;1.02;;
73678;SDS011;61978;52.742;16.962;2022-07-29T15:00:05;4.47;;;1.00;;
73678;SDS011;61978;52.742;16.962;2022-07-29T15:02:42;11.95;;;3.58;;
73678;SDS011;61978;52.742;16.962;2022-07-29T15:05:12;5.90;;;1.65;;
73678;SDS011;61978;52.742;16.962;2022-07-29T15:07:39;3.85;;;1.40;;
73678;SDS011;61978;52.742;16.962;2022-07-29T15:10:10;4.22;;;2.45;;
73678;SDS011;61978;52.742;16.962;2022-07-29T15:12:38;7.08;;;2.83;;
73678;SDS011;61978;52.742;16.962;2022-07-29T15:15:10;6.95;;;1.25;;
73678;SDS011;61978;52.742;16.962;2022-07-29T15:17:39;2.15;;;0.88;;
73678;SDS011;61978;52.742;16.962;2022-07-29T15:20:09;2.33;;;1.17;;
73678;SDS011;61978;52.742;16.962;2022-07-29T15:22:38;3.35;;;0.90;;
73678;SDS011;61978;52.742;16.962;2022-07-29T15:25:09;10.95;;;4.03;;
73678;SDS011;61978;52.742;16.962;2022-07-29T15:27:41;8.65;;;4.42;;
73678;SDS011;61978;52.742;16.962;2022-07-29T15:30:10;10.48;;;1.10;;
73678;SDS011;61978;52.742;16.962;2022-07-29T15:32:41;8.53;;;1.17;;
73678;SDS011;61978;52.742;16.962;2022-07-29T15:35:11;11.57;;;1.77;;
73678;SDS011;61978;52.742;16.962;2022-07-29T15:37:40;3.22;;;0.72;;
73678;SDS011;61978;52.742;16.962;2022-07-29T15:40:09;4.95;;;1.30;;
73678;SDS011;61978;52.742;16.962;2022-07-29T15:42:38;2.25;;;1.07;;
73678;SDS011;61978;52.742;16.962;2022-07-29T15:45:08;3.60;;;0.95;;
73678;SDS011;61978;52.742;16.962;2022-07-29T15:50:09;12.37;;;0.98;;
73678;SDS011;61978;52.742;16.962;2022-07-29T15:52:41;8.60;;;1.20;;
73678;SDS011;61978;52.742;16.962;2022-07-29T15:55:10;6.72;;;1.20;;
73678;SDS011;61978;52.742;16.962;2022-07-29T15:57:41;3.35;;;1.27;;
73678;SDS011;61978;52.742;16.962;2022-07-29T16:00:10;5.08;;;1.37;;
73678;SDS011;61978;52.742;16.962;2022-07-29T16:02:40;5.95;;;1.15;;
73678;SDS011;61978;52.742;16.962;2022-07-29T16:05:08;5.67;;;1.80;;
73678;SDS011;61978;52.742;16.962;2022-07-29T16:07:37;5.78;;;1.00;;
73678;SDS011;61978;52.742;16.962;2022-07-29T16:10:09;5.62;;;1.05;;
73678;SDS011;61978;52.742;16.962;2022-07-29T16:12:36;10.03;;;1.40;;
73678;SDS011;61978;52.742;16.962;2022-07-29T16:15:05;7.72;;;1.47;;
73678;SDS011;61978;52.742;16.962;2022-07-29T16:17:37;4.03;;;1.02;;
73678;SDS011;61978;52.742;16.962;2022-07-29T16:20:04;3.22;;;1.10;;
73678;SDS011;61978;52.742;16.962;2022-07-29T16:22:34;9.60;;;1.20;;
73678;SDS011;61978;52.742;16.962;2022-07-29T16:25:01;2.60;;;1.27;;
73678;SDS011;61978;52.742;16.962;2022-07-29T16:27:27;4.22;;;1.52;;
73678;SDS011;61978;52.742;16.962;2022-07-29T16:29:55;13.03;;;2.10;;
73678;SDS011;61978;52.742;16.962;2022-07-29T16:32:24;4.15;;;1.27;;
73678;SDS011;61978;52.742;16.962;2022-07-29T16:34:52;7.12;;;1.42;;
73678;SDS011;61978;52.742;16.962;2022-07-29T16:37:22;5.97;;;1.02;;
73678;SDS011;61978;52.742;16.962;2022-07-29T16:39:50;9.45;;;1.05;;
73678;SDS011;61978;52.742;16.962;2022-07-29T16:42:22;2.80;;;1.50;;
73678;SDS011;61978;52.742;16.962;2022-07-29T16:44:49;1.87;;;1.00;;
73678;SDS011;61978;52.742;16.962;2022-07-29T16:47:17;6.60;;;1.80;;
73678;SDS011;61978;52.742;16.962;2022-07-29T16:49:46;5.62;;;1.40;;
73678;SDS011;61978;52.742;16.962;2022-07-29T16:52:13;7.45;;;1.12;;
73678;SDS011;61978;52.742;16.962;2022-07-29T16:54:42;11.35;;;1.30;;
73678;SDS011;61978;52.742;16.962;2022-07-29T16:57:11;9.23;;;2.22;;
73678;SDS011;61978;52.742;16.962;2022-07-29T16:59:42;5.97;;;1.20;;
73678;SDS011;61978;52.742;16.962;2022-07-29T17:02:13;5.10;;;1.50;;
73678;SDS011;61978;52.742;16.962;2022-07-29T17:04:40;8.03;;;1.70;;
73678;SDS011;61978;52.742;16.962;2022-07-29T17:07:10;9.65;;;3.22;;
73678;SDS011;61978;52.742;16.962;2022-07-29T17:09:45;15.32;;;1.47;;
73678;SDS011;61978;52.742;16.962;2022-07-29T17:12:15;3.33;;;1.05;;
73678;SDS011;61978;52.742;16.962;2022-07-29T17:17:15;4.67;;;1.42;;
73678;SDS011;61978;52.742;16.962;2022-07-29T17:19:52;11.25;;;2.33;;
73678;SDS011;61978;52.742;16.962;2022-07-29T17:22:19;27.20;;;11.97;;
73678;SDS011;61978;52.742;16.962;2022-07-29T17:24:48;16.45;;;12.93;;
73678;SDS011;61978;52.742;16.962;2022-07-29T17:27:15;24.35;;;12.43;;
73678;SDS011;61978;52.742;16.962;2022-07-29T17:29:45;34.18;;;31.15;;
73678;SDS011;61978;52.742;16.962;2022-07-29T17:32:13;16.30;;;14.63;;
73678;SDS011;61978;52.742;16.962;2022-07-29T17:34:46;10.75;;;4.03;;
73678;SDS011;61978;52.742;16.962;2022-07-29T17:37:12;2.52;;;1.62;;
73678;SDS011;61978;52.742;16.962;2022-07-29T17:39:39;11.70;;;1.87;;
73678;SDS011;61978;52.742;16.962;2022-07-29T17:42:10;7.55;;;1.77;;
73678;SDS011;61978;52.742;16.962;2022-07-29T17:47:10;11.00;;;9.58;;
73678;SDS011;61978;52.742;16.962;2022-07-29T17:49:37;10.93;;;9.90;;
73678;SDS011;61978;52.742;16.962;2022-07-29T17:52:04;11.10;;;3.67;;
73678;SDS011;61978;52.742;16.962;2022-07-29T17:54:32;15.30;;;9.30;;
73678;SDS011;61978;52.742;16.962;2022-07-29T17:57:02;5.33;;;1.75;;
73678;SDS011;61978;52.742;16.962;2022-07-29T17:59:30;6.67;;;2.00;;
73678;SDS011;61978;52.742;16.962;2022-07-29T18:01:58;4.92;;;1.75;;
73678;SDS011;61978;52.742;16.962;2022-07-29T18:04:27;8.95;;;1.85;;
73678;SDS011;61978;52.742;16.962;2022-07-29T18:06:56;14.53;;;1.52;;
73678;SDS011;61978;52.742;16.962;2022-07-29T18:09:24;9.00;;;2.98;;
73678;SDS011;61978;52.742;16.962;2022-07-29T18:11:52;5.78;;;1.90;;
73678;SDS011;61978;52.742;16.962;2022-07-29T18:14:19;6.28;;;1.70;;
73678;SDS011;61978;52.742;16.962;2022-07-29T18:16:47;7.58;;;2.83;;
73678;SDS011;61978;52.742;16.962;2022-07-29T18:19:15;8.80;;;2.33;;
73678;SDS011;61978;52.742;16.962;2022-07-29T18:21:43;9.28;;;4.90;;
73678;SDS011;61978;52.742;16.962;2022-07-29T18:24:11;9.20;;;5.03;;
73678;SDS011;61978;52.742;16.962;2022-07-29T18:26:38;8.08;;;4.90;;
73678;SDS011;61978;52.742;16.962;2022-07-29T18:29:05;5.37;;;2.62;;
73678;SDS011;61978;52.742;16.962;2022-07-29T18:31:33;21.07;;;3.10;;
73678;SDS011;61978;52.742;16.962;2022-07-29T18:34:02;10.60;;;6.20;;
73678;SDS011;61978;52.742;16.962;2022-07-29T18:36:29;23.40;;;16.45;;
73678;SDS011;61978;52.742;16.962;2022-07-29T18:38:55;20.60;;;7.60;;
73678;SDS011;61978;52.742;16.962;2022-07-29T18:41:23;20.05;;;3.17;;
73678;SDS011;61978;52.742;16.962;2022-07-29T18:43:49;13.38;;;4.45;;
73678;SDS011;61978;52.742;16.962;2022-07-29T18:46:16;20.97;;;7.12;;